Time;durP1;ratioP1;P1;durP2;ratioP2;P2;SDS_P1;SDS_P2;PMS_P1;PMS_P2;Temp;Humidity;BMP_temperature;BMP_pressure;BME280_temperature;BME280_humidity;BME280_pressure;Samples;Min_cycle;Max_cycle;Signal;HPM_P1;HPM_P2
2022/10/18 00:01:24;;;;;;;;;;;;;;;4.78;60.84;102844.21;1740486;82;27410;-58
2022/10/18 00:03:51;;;;;;;;;;;;;;;4.75;61.00;102842.96;1713057;81;25763;-58
2022/10/18 00:06:17;;;;;;;;;;;;;;;4.72;61.09;102843.52;1719964;82;25737;-57
2022/10/18 00:08:44;;;;;;;;;;;;;;;4.67;61.21;102841.89;1741141;82;25770;-58
2022/10/18 00:11:10;;;;;;;;;;;;;;;4.64;61.28;102835.78;1740710;82;25718;-58
2022/10/18 00:13:37;;;;;;;;;;;;;;;4.57;61.90;102835.08;1740664;81;27476;-58
2022/10/18 00:16:07;;;;;;;;;;;;;;;4.52;61.64;102838.36;1740620;82;25836;-58
2022/10/18 00:18:33;;;;;;;;;;;;;;;4.53;62.34;102837.41;1737247;82;25467;-58
2022/10/18 00:21:02;;;;;;;;;;;;;;;4.52;62.18;102831.22;1740711;81;25818;-58
2022/10/18 00:23:30;;;;;;;;;;;;;;;4.52;63.18;102834.36;1741250;81;25709;-57
2022/10/18 00:26:09;;;;;;;;;;;;;;;4.50;63.58;102834.86;1740807;81;27474;-58
2022/10/18 00:28:36;;;;;;;;;;;;;;;4.48;64.56;102829.55;1728918;82;25618;-58
2022/10/18 00:31:18;;;;;;;;;;;;;;;4.47;63.99;102825.17;1740706;82;25601;-57
2022/10/18 00:33:47;;;;;;;;;;;;;;;4.53;63.85;102825.41;1720420;82;25822;-58
2022/10/18 00:36:14;;;;;;;;;;;;;;;4.62;63.76;102821.14;1691124;82;26667;-58
2022/10/18 00:38:41;;;;;;;;;;;;;;;4.68;63.98;102806.31;1682948;84;27441;-58
2022/10/18 00:41:10;;;;;;;;;;;;;;;4.77;64.00;102810.47;1696788;84;25788;-58
2022/10/18 00:44:03;;;;;;;;;;;;;;;4.85;63.61;102815.56;1687463;85;25763;-59
2022/10/18 00:46:32;;;;;;;;;;;;;;;4.92;63.56;102810.45;1673359;84;25733;-58
2022/10/18 00:49:02;;;;;;;;;;;;;;;4.98;63.50;102811.57;1703192;82;25834;-58
2022/10/18 00:51:32;;;;;;;;;;;;;;;5.03;63.22;102811.89;1702718;83;27635;-58
2022/10/18 00:53:58;;;;;;;;;;;;;;;5.03;63.07;102806.09;1684514;85;26188;-58
2022/10/18 00:56:25;;;;;;;;;;;;;;;5.04;64.12;102805.17;1680349;83;25426;-58
2022/10/18 00:58:53;;;;;;;;;;;;;;;4.94;63.18;102804.61;1693179;84;25770;-58
2022/10/18 01:01:19;;;;;;;;;;;;;;;4.95;63.14;102794.35;1706431;83;25813;-58
2022/10/18 01:03:46;;;;;;;;;;;;;;;4.97;63.13;102800.52;1695225;82;28328;-58
2022/10/18 01:06:13;;;;;;;;;;;;;;;4.97;63.13;102799.19;1664809;86;25799;-56
2022/10/18 01:09:06;;;;;;;;;;;;;;;4.96;63.05;102797.44;1667653;83;25710;-58
2022/10/18 01:11:51;;;;;;;;;;;;;;;4.96;63.11;102792.10;1638379;84;25958;-58
2022/10/18 01:14:40;;;;;;;;;;;;;;;4.95;62.53;102795.69;1687674;84;25711;-58
2022/10/18 01:17:22;;;;;;;;;;;;;;;4.85;62.62;102791.09;1719800;83;27401;-58
2022/10/18 01:20:08;;;;;;;;;;;;;;;4.81;62.40;102797.46;1730693;83;25647;-57
2022/10/18 01:22:40;;;;;;;;;;;;;;;4.76;62.56;102800.72;1731453;83;25833;-57
2022/10/18 01:25:33;;;;;;;;;;;;;;;4.71;62.57;102792.00;1731403;82;26801;-58
2022/10/18 01:28:33;;;;;;;;;;;;;;;4.68;62.54;102796.09;1731319;83;26060;-59
2022/10/18 01:31:05;;;;;;;;;;;;;;;4.60;62.77;102791.45;1731431;83;27634;-58
2022/10/18 01:33:38;;;;;;;;;;;;;;;4.52;63.08;102791.72;1730002;83;25728;-58
2022/10/18 01:36:21;;;;;;;;;;;;;;;4.50;62.92;102792.21;1731518;83;25744;-58
2022/10/18 01:38:50;;;;;;;;;;;;;;;4.48;63.18;102787.38;1729651;82;25795;-58
2022/10/18 01:41:19;;;;;;;;;;;;;;;4.47;63.11;102789.19;1707328;83;25717;-57
2022/10/18 01:43:47;;;;;;;;;;;;;;;4.44;62.78;102781.75;1702140;84;27553;-57
2022/10/18 01:46:16;;;;;;;;;;;;;;;4.40;63.37;102776.94;1698236;83;25754;-58
2022/10/18 01:48:43;;;;;;;;;;;;;;;4.37;63.19;102773.91;1694228;84;25784;-58
2022/10/18 01:51:10;;;;;;;;;;;;;;;4.37;62.86;102775.25;1685537;84;25789;-58
2022/10/18 01:53:37;;;;;;;;;;;;;;;4.34;63.27;102776.70;1674670;84;25758;-58
2022/10/18 01:56:19;;;;;;;;;;;;;;;4.32;63.24;102777.19;1666281;85;27501;-59
2022/10/18 01:59:21;;;;;;;;;;;;;;;4.27;63.38;102770.25;1689528;83;25907;-57
2022/10/18 02:02:10;;;;;;;;;;;;;;;4.17;63.36;102771.86;1694439;84;25732;-58
2022/10/18 02:04:59;;;;;;;;;;;;;;;4.14;63.24;102767.94;1694322;84;26386;-58
2022/10/18 02:07:35;;;;;;;;;;;;;;;4.10;63.28;102772.07;1694761;84;25796;-58
2022/10/18 02:10:20;;;;;;;;;;;;;;;4.03;63.33;102760.27;1694516;84;27731;-58
2022/10/18 02:12:48;;;;;;;;;;;;;;;4.04;63.63;102767.80;1692703;84;25990;-57
2022/10/18 02:15:18;;;;;;;;;;;;;;;4.03;63.75;102762.94;1694620;84;25710;-57
2022/10/18 02:17:46;;;;;;;;;;;;;;;4.03;63.78;102760.75;1694295;84;25853;-58
2022/10/18 02:20:15;;;;;;;;;;;;;;;4.01;63.54;102763.44;1694587;84;25656;-57
2022/10/18 02:22:44;;;;;;;;;;;;;;;3.97;63.51;102759.57;1708002;82;27461;-58
2022/10/18 02:25:14;;;;;;;;;;;;;;;3.94;63.69;102763.20;1723319;83;26003;-59
2022/10/18 02:27:41;;;;;;;;;;;;;;;3.90;63.52;102764.19;1722637;83;25761;-59
2022/10/18 02:30:09;;;;;;;;;;;;;;;3.85;64.11;102762.13;1723245;83;25940;-57
2022/10/18 02:32:49;;;;;;;;;;;;;;;3.82;64.02;102764.43;1723559;83;25745;-59
2022/10/18 02:35:28;;;;;;;;;;;;;;;3.81;63.97;102756.02;1719558;83;27613;-57
2022/10/18 02:37:56;;;;;;;;;;;;;;;3.83;64.26;102750.20;1722215;83;25762;-58
2022/10/18 02:40:24;;;;;;;;;;;;;;;3.91;64.43;102748.63;1710112;83;25808;-57
2022/10/18 02:42:56;;;;;;;;;;;;;;;3.96;64.31;102752.50;1691156;83;25872;-58
2022/10/18 02:45:23;;;;;;;;;;;;;;;3.99;64.61;102749.75;1686934;83;25478;-57
2022/10/18 02:47:51;;;;;;;;;;;;;;;4.05;64.88;102740.24;1728519;83;27483;-58
2022/10/18 02:50:18;;;;;;;;;;;;;;;4.10;64.93;102748.98;1685707;82;25746;-57
2022/10/18 02:52:44;;;;;;;;;;;;;;;4.14;64.73;102750.62;1690021;83;25785;-58
2022/10/18 02:55:10;;;;;;;;;;;;;;;4.15;64.72;102753.70;1689724;85;25935;-58
2022/10/18 02:57:37;;;;;;;;;;;;;;;4.16;64.49;102752.80;1689901;85;25811;-57
2022/10/18 03:00:05;;;;;;;;;;;;;;;4.18;64.68;102751.41;1689588;84;27453;-58
2022/10/18 03:02:32;;;;;;;;;;;;;;;4.21;64.58;102750.85;1689892;84;25803;-58
2022/10/18 03:04:59;;;;;;;;;;;;;;;4.22;64.69;102740.61;1689494;85;25785;-58
2022/10/18 03:07:26;;;;;;;;;;;;;;;4.23;64.41;102742.36;1689736;83;25827;-58
2022/10/18 03:09:52;;;;;;;;;;;;;;;4.24;64.54;102748.58;1682355;85;25780;-57
2022/10/18 03:12:19;;;;;;;;;;;;;;;4.25;64.97;102742.34;1682585;85;27471;-57
2022/10/18 03:14:45;;;;;;;;;;;;;;;4.28;64.53;102741.36;1675102;84;25649;-57
2022/10/18 03:17:12;;;;;;;;;;;;;;;4.20;64.85;102735.81;1673923;85;25682;-58
2022/10/18 03:19:38;;;;;;;;;;;;;;;4.13;65.14;102736.89;1673855;85;26580;-58
2022/10/18 03:22:05;;;;;;;;;;;;;;;4.05;65.12;102744.23;1680116;83;25684;-57
2022/10/18 03:24:31;;;;;;;;;;;;;;;3.99;65.80;102743.95;1672321;85;27496;-58
2022/10/18 03:26:58;;;;;;;;;;;;;;;3.98;65.65;102743.57;1672696;85;25766;-58
2022/10/18 03:29:24;;;;;;;;;;;;;;;3.97;65.59;102746.25;1672348;85;26511;-58
2022/10/18 03:31:50;;;;;;;;;;;;;;;3.95;65.44;102750.75;1672749;85;26678;-59
2022/10/18 03:34:17;;;;;;;;;;;;;;;3.91;65.73;102745.97;1673929;83;25761;-58
2022/10/18 03:36:44;;;;;;;;;;;;;;;3.89;65.82;102748.69;1673875;85;27535;-56
2022/10/18 03:39:11;;;;;;;;;;;;;;;3.90;65.77;102746.44;1683711;84;25727;-57
2022/10/18 03:41:38;;;;;;;;;;;;;;;3.85;65.94;102751.48;1688033;84;25861;-58
2022/10/18 03:44:05;;;;;;;;;;;;;;;3.76;66.58;102750.83;1684884;85;26489;-58
2022/10/18 03:46:31;;;;;;;;;;;;;;;3.70;66.47;102751.45;1685292;84;25702;-58
2022/10/18 03:48:58;;;;;;;;;;;;;;;3.66;66.52;102746.67;1680154;85;27488;-58
2022/10/18 03:51:25;;;;;;;;;;;;;;;3.64;66.43;102748.49;1683741;83;25752;-59
2022/10/18 03:53:52;;;;;;;;;;;;;;;3.60;66.59;102742.39;1664580;86;25787;-59
2022/10/18 03:56:18;;;;;;;;;;;;;;;3.62;66.60;102747.69;1664546;86;25897;-59
2022/10/18 03:58:44;;;;;;;;;;;;;;;3.65;66.58;102751.58;1664404;86;25874;-58
2022/10/18 04:01:11;;;;;;;;;;;;;;;3.71;66.73;102745.21;1664663;86;27491;-58
2022/10/18 04:03:38;;;;;;;;;;;;;;;3.78;66.70;102736.61;1664345;86;25522;-57
2022/10/18 04:06:04;;;;;;;;;;;;;;;3.82;66.44;102747.12;1674746;83;25716;-57
2022/10/18 04:08:31;;;;;;;;;;;;;;;3.84;66.63;102738.64;1690727;84;27056;-59
2022/10/18 04:10:58;;;;;;;;;;;;;;;3.89;66.67;102735.84;1688958;84;25730;-58
2022/10/18 04:13:24;;;;;;;;;;;;;;;3.94;66.54;102734.38;1688146;84;29802;-58
2022/10/18 04:15:51;;;;;;;;;;;;;;;4.00;66.56;102732.86;1685745;84;26525;-60
2022/10/18 04:18:17;;;;;;;;;;;;;;;4.05;66.99;102729.15;1697841;84;26426;-58
2022/10/18 04:20:44;;;;;;;;;;;;;;;4.12;66.72;102735.17;1702061;84;25811;-59
2022/10/18 04:23:10;;;;;;;;;;;;;;;4.18;66.72;102733.65;1721383;83;25781;-57
2022/10/18 04:25:36;;;;;;;;;;;;;;;4.22;66.40;102724.63;1723368;82;27642;-58
2022/10/18 04:28:03;;;;;;;;;;;;;;;4.26;66.27;102729.88;1694065;83;25694;-57
2022/10/18 04:30:30;;;;;;;;;;;;;;;4.28;66.16;102734.23;1688311;84;25746;-58
2022/10/18 04:32:56;;;;;;;;;;;;;;;4.30;66.24;102733.73;1686855;84;25848;-60
2022/10/18 04:35:24;;;;;;;;;;;;;;;4.31;66.09;102729.26;1689076;83;25785;-57
2022/10/18 04:37:51;;;;;;;;;;;;;;;4.34;67.77;102731.84;1680971;84;29665;-58
2022/10/18 04:40:18;;;;;;;;;;;;;;;4.25;67.62;102726.80;1678993;84;25694;-58
2022/10/18 04:42:45;;;;;;;;;;;;;;;4.15;66.96;102732.88;1681910;85;25814;-61
2022/10/18 04:45:12;;;;;;;;;;;;;;;4.11;66.93;102727.20;1681976;85;26798;-58
2022/10/18 04:47:38;;;;;;;;;;;;;;;4.08;67.17;102727.70;1676615;85;25717;-59
2022/10/18 04:50:06;;;;;;;;;;;;;;;4.12;67.33;102723.62;1705566;84;27533;-59
2022/10/18 04:52:33;;;;;;;;;;;;;;;4.16;67.03;102726.16;1696480;84;25724;-58
2022/10/18 04:54:59;;;;;;;;;;;;;;;4.17;66.91;102721.24;1702052;84;25747;-58
2022/10/18 04:57:25;;;;;;;;;;;;;;;4.17;66.92;102715.91;1700292;84;26495;-58
2022/10/18 04:59:52;;;;;;;;;;;;;;;4.18;66.51;102723.44;1694592;84;25717;-59
2022/10/18 05:02:18;;;;;;;;;;;;;;;4.19;66.81;102710.53;1676051;84;27705;-58
2022/10/18 05:04:45;;;;;;;;;;;;;;;4.20;66.76;102710.50;1701299;84;25801;-59
2022/10/18 05:07:11;;;;;;;;;;;;;;;4.20;66.63;102715.83;1687545;85;25699;-58
2022/10/18 05:09:37;;;;;;;;;;;;;;;4.20;66.74;102707.84;1673329;85;26647;-59
2022/10/18 05:12:04;;;;;;;;;;;;;;;4.23;67.08;102712.19;1703588;82;25833;-59
2022/10/18 05:14:30;;;;;;;;;;;;;;;4.27;66.90;102714.30;1713541;82;27462;-59
2022/10/18 05:16:57;;;;;;;;;;;;;;;4.30;66.81;102711.08;1694095;82;25701;-58
2022/10/18 05:19:23;;;;;;;;;;;;;;;4.33;66.62;102713.66;1713392;83;25740;-58
2022/10/18 05:21:50;;;;;;;;;;;;;;;4.35;66.95;102709.61;1682017;84;25774;-58
2022/10/18 05:24:17;;;;;;;;;;;;;;;4.32;67.36;102711.91;1702283;83;25801;-57
2022/10/18 05:26:43;;;;;;;;;;;;;;;4.29;66.90;102709.33;1722057;83;27496;-59
2022/10/18 05:29:10;;;;;;;;;;;;;;;4.29;67.48;102708.47;1721580;83;25805;-59
2022/10/18 05:31:36;;;;;;;;;;;;;;;4.28;67.38;102710.72;1721713;83;25783;-58
2022/10/18 05:34:03;;;;;;;;;;;;;;;4.32;67.31;102709.25;1721528;83;25816;-59
2022/10/18 05:36:29;;;;;;;;;;;;;;;4.37;68.32;102701.97;1721685;82;25509;-58
2022/10/18 05:38:55;;;;;;;;;;;;;;;4.42;68.37;102699.63;1721585;82;27640;-59
2022/10/18 05:41:22;;;;;;;;;;;;;;;4.49;68.03;102698.52;1697053;82;25763;-58
2022/10/18 05:43:48;;;;;;;;;;;;;;;4.59;68.41;102691.97;1682966;84;25759;-58
2022/10/18 05:46:15;;;;;;;;;;;;;;;4.69;68.26;102692.52;1704887;84;28024;-58
2022/10/18 05:48:43;;;;;;;;;;;;;;;4.80;68.22;102700.16;1712745;83;25741;-59
2022/10/18 05:51:09;;;;;;;;;;;;;;;4.92;68.34;102690.90;1703515;82;27447;-58
2022/10/18 05:53:36;;;;;;;;;;;;;;;5.06;68.65;102695.77;1700245;84;25716;-59
2022/10/18 05:56:04;;;;;;;;;;;;;;;5.20;68.74;102693.95;1700765;84;25742;-58
2022/10/18 05:58:31;;;;;;;;;;;;;;;5.30;68.49;102696.23;1686329;83;25783;-57
2022/10/18 06:00:59;;;;;;;;;;;;;;;5.44;68.62;102699.74;1684488;85;27306;-58
2022/10/18 06:03:26;;;;;;;;;;;;;;;5.58;69.02;102695.23;1684315;84;27528;-58
2022/10/18 06:05:55;;;;;;;;;;;;;;;5.70;68.64;102705.92;1697721;83;27357;-58
2022/10/18 06:08:21;;;;;;;;;;;;;;;5.82;68.61;102701.92;1705698;82;25817;-61
2022/10/18 06:10:48;;;;;;;;;;;;;;;5.93;68.64;102701.50;1713321;83;25772;-58
2022/10/18 06:13:14;;;;;;;;;;;;;;;6.03;68.86;102692.25;1713361;83;25788;-59
2022/10/18 06:15:41;;;;;;;;;;;;;;;6.11;68.69;102693.30;1722018;82;28418;-59
2022/10/18 06:18:07;;;;;;;;;;;;;;;6.21;68.48;102697.80;1727568;83;25811;-59
2022/10/18 06:20:34;;;;;;;;;;;;;;;6.33;68.68;102691.09;1728594;82;25773;-58
2022/10/18 06:23:00;;;;;;;;;;;;;;;6.42;69.11;102690.28;1725672;82;26686;-59
2022/10/18 06:25:26;;;;;;;;;;;;;;;6.54;68.82;102692.91;1728500;83;25751;-60
2022/10/18 06:27:53;;;;;;;;;;;;;;;6.66;69.16;102692.02;1728732;82;27558;-59
2022/10/18 06:30:19;;;;;;;;;;;;;;;6.78;68.83;102688.81;1728740;82;25808;-58
2022/10/18 06:32:45;;;;;;;;;;;;;;;6.89;68.80;102685.22;1728798;82;25498;-58
2022/10/18 06:35:12;;;;;;;;;;;;;;;6.97;68.86;102676.88;1728670;83;26515;-58
2022/10/18 06:37:38;;;;;;;;;;;;;;;7.07;68.61;102675.15;1728903;83;26416;-59
2022/10/18 06:40:06;;;;;;;;;;;;;;;7.17;68.94;102681.84;1719068;82;29675;-59
2022/10/18 06:42:33;;;;;;;;;;;;;;;7.26;68.55;102678.73;1699784;84;25770;-59
2022/10/18 06:45:00;;;;;;;;;;;;;;;7.34;68.19;102683.31;1691240;83;25827;-59
2022/10/18 06:47:26;;;;;;;;;;;;;;;7.44;68.39;102685.09;1683201;83;26001;-58
2022/10/18 06:49:53;;;;;;;;;;;;;;;7.55;68.33;102674.37;1684748;84;25706;-60
2022/10/18 06:52:24;;;;;;;;;;;;;;;7.65;68.45;102672.53;1659769;86;27533;-58
2022/10/18 06:54:48;;;;;;;;;;;;;;;7.78;68.61;102670.64;1659674;85;25952;-60
2022/10/18 06:57:14;;;;;;;;;;;;;;;7.91;69.10;102661.56;1679080;83;25879;-59
2022/10/18 06:59:41;;;;;;;;;;;;;;;8.02;68.72;102661.93;1685125;85;26482;-59
2022/10/18 07:02:09;;;;;;;;;;;;;;;8.13;68.88;102666.77;1680132;85;25717;-58
2022/10/18 07:04:35;;;;;;;;;;;;;;;8.25;68.44;102666.16;1682125;85;27542;-59
2022/10/18 07:07:02;;;;;;;;;;;;;;;8.36;68.17;102658.06;1685387;83;25824;-58
2022/10/18 07:09:28;;;;;;;;;;;;;;;8.51;68.09;102658.70;1685564;83;25811;-58
2022/10/18 07:11:55;;;;;;;;;;;;;;;8.67;67.95;102656.09;1682281;83;25820;-58
2022/10/18 07:14:21;;;;;;;;;;;;;;;8.84;67.94;102653.03;1685510;84;25777;-58
2022/10/18 07:16:47;;;;;;;;;;;;;;;9.02;67.37;102653.91;1690721;83;28855;-59
2022/10/18 07:19:15;;;;;;;;;;;;;;;9.18;67.21;102652.64;1685578;85;25763;-59
2022/10/18 07:21:41;;;;;;;;;;;;;;;9.32;66.85;102655.45;1685218;85;25822;-58
2022/10/18 07:24:08;;;;;;;;;;;;;;;9.49;66.85;102651.88;1685333;85;25813;-59
2022/10/18 07:26:35;;;;;;;;;;;;;;;9.66;66.62;102649.59;1685111;85;25968;-59
2022/10/18 07:29:05;;;;;;;;;;;;;;;9.85;66.20;102647.23;1685550;85;27625;-59
2022/10/18 07:31:32;;;;;;;;;;;;;;;10.01;65.89;102644.08;1685075;83;25781;-59
2022/10/18 07:33:59;;;;;;;;;;;;;;;10.20;65.74;102640.34;1685477;85;25790;-58
2022/10/18 07:36:26;;;;;;;;;;;;;;;10.39;65.35;102632.59;1685439;85;26506;-59
2022/10/18 07:38:53;;;;;;;;;;;;;;;10.58;64.98;102633.25;1685580;85;25731;-59
2022/10/18 07:41:20;;;;;;;;;;;;;;;10.79;64.58;102628.41;1685615;83;27473;-59
2022/10/18 07:43:49;;;;;;;;;;;;;;;11.00;64.53;102624.05;1712916;83;25785;-58
2022/10/18 07:46:17;;;;;;;;;;;;;;;11.20;63.86;102624.16;1682769;85;25809;-59
2022/10/18 07:48:44;;;;;;;;;;;;;;;11.35;63.59;102613.37;1684849;84;26562;-59
2022/10/18 07:51:12;;;;;;;;;;;;;;;11.54;63.24;102619.34;1719245;83;25683;-59
2022/10/18 07:53:39;;;;;;;;;;;;;;;11.70;62.92;102608.47;1720759;83;27554;-59
2022/10/18 07:56:14;;;;;;;;;;;;;;;11.87;62.49;102607.39;1710809;83;25493;-60
2022/10/18 07:58:39;;;;;;;;;;;;;;;12.07;62.40;102611.97;1674034;85;25742;-60
2022/10/18 08:01:07;;;;;;;;;;;;;;;12.28;61.82;102607.48;1674391;85;25892;-59
2022/10/18 08:03:35;;;;;;;;;;;;;;;12.47;61.40;102598.53;1674363;85;25944;-59
2022/10/18 08:06:02;;;;;;;;;;;;;;;12.70;61.27;102604.19;1674701;85;28435;-59
2022/10/18 08:08:29;;;;;;;;;;;;;;;12.93;60.73;102597.69;1674334;85;25786;-59
2022/10/18 08:11:11;;;;;;;;;;;;;;;13.18;59.83;102598.66;1674451;85;25742;-60
2022/10/18 08:13:37;;;;;;;;;;;;;;;13.46;58.15;102593.05;1663230;86;26025;-59
2022/10/18 08:16:07;;;;;;;;;;;;;;;13.77;56.05;102582.69;1674566;85;25816;-59
2022/10/18 08:18:35;;;;;;;;;;;;;;;14.07;56.35;102589.52;1674502;85;27021;-60
2022/10/18 08:21:04;;;;;;;;;;;;;;;14.37;53.60;102572.42;1674464;85;25766;-59
2022/10/18 08:23:30;;;;;;;;;;;;;;;14.65;52.68;102571.19;1674338;85;25833;-60
2022/10/18 08:26:02;;;;;;;;;;;;;;;14.98;51.14;102563.25;1674399;85;25796;-59
2022/10/18 08:28:29;;;;;;;;;;;;;;;15.30;49.57;102567.97;1700616;84;25734;-59
2022/10/18 08:30:56;;;;;;;;;;;;;;;15.61;47.41;102558.69;1702596;84;28195;-59
2022/10/18 08:33:22;;;;;;;;;;;;;;;15.90;46.50;102552.74;1702561;84;25829;-59
2022/10/18 08:35:58;;;;;;;;;;;;;;;16.18;45.19;102550.42;1720456;83;25776;-59
2022/10/18 08:38:24;;;;;;;;;;;;;;;16.46;43.51;102549.44;1674234;85;25855;-59
2022/10/18 08:40:51;;;;;;;;;;;;;;;16.74;43.05;102541.98;1692362;83;26235;-60
2022/10/18 08:43:30;;;;;;;;;;;;;;;16.98;41.91;102548.16;1697025;83;27612;-60
2022/10/18 08:45:57;;;;;;;;;;;;;;;17.21;41.52;102539.33;1678946;83;25783;-60
2022/10/18 08:48:30;;;;;;;;;;;;;;;17.48;40.84;102535.97;1700892;82;25758;-60
2022/10/18 08:50:57;;;;;;;;;;;;;;;17.76;40.55;102538.03;1709037;82;28044;-60
2022/10/18 08:53:31;;;;;;;;;;;;;;;18.03;40.20;102538.75;1700641;83;25943;-61
2022/10/18 08:56:01;;;;;;;;;;;;;;;18.34;39.54;102534.50;1716732;83;27479;-59
2022/10/18 08:58:30;;;;;;;;;;;;;;;18.83;38.90;102528.12;1721587;83;26007;-60
2022/10/18 09:01:18;;;;;;;;;;;;;;;19.57;37.79;102522.30;1716465;83;25855;-59
2022/10/18 09:04:03;;;;;;;;;;;;;;;20.48;35.37;102523.18;1703193;83;25759;-58
2022/10/18 09:06:33;;;;;;;;;;;;;;;21.41;33.99;102516.17;1723123;83;25710;-59
2022/10/18 09:09:12;;;;;;;;;;;;;;;22.15;33.42;102512.24;1713336;83;27664;-60
2022/10/18 09:12:08;;;;;;;;;;;;;;;22.79;32.59;102511.52;1693777;84;25558;-59
2022/10/18 09:14:49;;;;;;;;;;;;;;;23.34;31.99;102510.32;1703910;83;25732;-60
2022/10/18 09:17:43;;;;;;;;;;;;;;;23.91;31.28;102500.87;1696148;83;25811;-59
2022/10/18 09:20:32;;;;;;;;;;;;;;;24.51;29.96;102494.17;1650119;86;25759;-60
2022/10/18 09:23:14;;;;;;;;;;;;;;;25.09;28.87;102488.06;1676797;83;28442;-59
2022/10/18 09:25:59;;;;;;;;;;;;;;;25.60;28.23;102487.73;1687406;83;25751;-59
2022/10/18 09:28:50;;;;;;;;;;;;;;;26.07;25.97;102490.94;1710892;83;25693;-59
2022/10/18 09:31:20;;;;;;;;;;;;;;;26.35;26.71;102478.61;1723252;83;26581;-59
2022/10/18 09:34:00;;;;;;;;;;;;;;;26.87;27.03;102471.42;1720803;83;25870;-59
2022/10/18 09:36:34;;;;;;;;;;;;;;;27.41;25.73;102471.64;1699970;83;27447;-59
2022/10/18 09:39:02;;;;;;;;;;;;;;;27.91;24.23;102473.56;1726669;81;26464;-59
2022/10/18 09:41:35;;;;;;;;;;;;;;;28.24;21.76;102464.98;1689822;83;25840;-59
2022/10/18 09:44:11;;;;;;;;;;;;;;;28.24;21.93;102456.13;1728288;82;25967;-60
2022/10/18 09:46:41;;;;;;;;;;;;;;;28.39;22.23;102455.06;1716253;82;26399;-60
2022/10/18 09:49:19;;;;;;;;;;;;;;;28.61;23.46;102445.97;1707152;82;27540;-58
2022/10/18 09:51:48;;;;;;;;;;;;;;;29.03;21.44;102447.88;1709682;82;25867;-59
2022/10/18 09:54:25;;;;;;;;;;;;;;;29.32;21.58;102438.70;1723154;83;25821;-58
2022/10/18 09:57:04;;;;;;;;;;;;;;;29.50;19.78;102444.03;1706326;83;25985;-59
2022/10/18 09:59:37;;;;;;;;;;;;;;;29.41;21.36;102435.66;1694380;83;25982;-61
2022/10/18 10:02:04;;;;;;;;;;;;;;;29.48;21.11;102424.86;1694321;84;27519;-59
2022/10/18 10:04:31;;;;;;;;;;;;;;;29.96;21.05;102423.97;1690372;83;25757;-58
2022/10/18 10:07:00;;;;;;;;;;;;;;;30.24;20.96;102424.03;1685693;83;25781;-59
2022/10/18 10:09:32;;;;;;;;;;;;;;;30.63;17.96;102433.58;1685754;83;25860;-60
2022/10/18 10:11:59;;;;;;;;;;;;;;;30.45;18.81;102419.96;1684350;84;25711;-59
2022/10/18 10:14:29;;;;;;;;;;;;;;;30.55;18.98;102417.53;1688304;84;27410;-60
2022/10/18 10:17:01;;;;;;;;;;;;;;;30.67;17.51;102414.83;1684882;84;25875;-60
2022/10/18 10:19:34;;;;;;;;;;;;;;;30.71;17.89;102407.74;1687558;83;25837;-59
2022/10/18 10:22:08;;;;;;;;;;;;;;;30.29;17.80;102402.84;1684444;84;25757;-59
2022/10/18 10:24:49;;;;;;;;;;;;;;;30.54;18.35;102400.56;1688641;84;25713;-59
2022/10/18 10:27:33;;;;;;;;;;;;;;;30.81;17.83;102393.29;1692827;83;28828;-60
2022/10/18 10:30:06;;;;;;;;;;;;;;;31.12;18.15;102388.64;1686817;84;25762;-61
2022/10/18 10:32:42;;;;;;;;;;;;;;;31.29;18.24;102382.41;1664834;84;25675;-60
2022/10/18 10:35:34;;;;;;;;;;;;;;;31.41;18.16;102375.48;1690140;84;27494;-60
2022/10/18 10:38:01;;;;;;;;;;;;;;;31.76;16.85;102370.55;1686415;83;25723;-59
2022/10/18 10:40:29;;;;;;;;;;;;;;;31.70;17.57;102365.39;1688547;83;27530;-59
2022/10/18 10:43:25;;;;;;;;;;;;;;;32.04;17.91;102353.67;1684474;84;25773;-59
2022/10/18 10:46:11;;;;;;;;;;;;;;;32.33;18.21;102346.27;1684709;83;25760;-59
2022/10/18 10:48:55;;;;;;;;;;;;;;;32.86;17.49;102335.09;1676042;85;25815;-59
2022/10/18 10:51:33;;;;;;;;;;;;;;;32.98;17.39;102331.72;1711452;82;25686;-60
2022/10/18 10:54:07;;;;;;;;;;;;;;;33.02;16.87;102327.88;1680647;83;27482;-60
2022/10/18 10:56:35;;;;;;;;;;;;;;;33.29;17.11;102319.73;1706384;82;25824;-59
2022/10/18 10:59:16;;;;;;;;;;;;;;;33.50;17.13;102320.08;1713677;81;25750;-60
2022/10/18 11:01:44;;;;;;;;;;;;;;;33.73;16.32;102319.05;1702156;84;25825;-58
2022/10/18 11:04:28;;;;;;;;;;;;;;;33.75;16.37;102314.63;1712863;82;26056;-60
2022/10/18 11:06:58;;;;;;;;;;;;;;;33.68;16.37;102306.42;1703318;84;28157;-59
2022/10/18 11:09:34;;;;;;;;;;;;;;;33.75;15.82;102309.05;1693647;84;25926;-60
2022/10/18 11:12:17;;;;;;;;;;;;;;;33.73;15.99;102302.30;1695194;84;26146;-60
2022/10/18 11:14:46;;;;;;;;;;;;;;;33.64;14.87;102298.25;1692673;83;25852;-59
2022/10/18 11:17:28;;;;;;;;;;;;;;;33.17;15.71;102289.67;1692471;83;25983;-60
2022/10/18 11:20:10;;;;;;;;;;;;;;;33.01;16.35;102281.58;1709628;82;27723;-59
2022/10/18 11:22:42;;;;;;;;;;;;;;;32.87;16.37;102275.48;1682543;84;25693;-60
2022/10/18 11:25:12;;;;;;;;;;;;;;;32.55;16.01;102269.85;1694823;83;25883;-59
2022/10/18 11:27:42;;;;;;;;;;;;;;;32.20;15.87;102265.22;1695679;83;26914;-60
2022/10/18 11:30:18;;;;;;;;;;;;;;;31.90;15.98;102265.41;1710755;82;25741;-59
2022/10/18 11:33:14;;;;;;;;;;;;;;;31.60;16.18;102253.87;1675474;83;27552;-60
2022/10/18 11:35:45;;;;;;;;;;;;;;;31.32;16.53;102249.33;1684125;83;25882;-59
2022/10/18 11:38:37;;;;;;;;;;;;;;;31.03;15.89;102249.69;1682921;83;25802;-59
2022/10/18 11:41:07;;;;;;;;;;;;;;;30.68;15.86;102247.11;1681810;83;25800;-59
2022/10/18 11:43:49;;;;;;;;;;;;;;;30.36;15.47;102240.91;1694235;83;25911;-59
2022/10/18 11:46:23;;;;;;;;;;;;;;;29.98;15.90;102233.16;1692517;83;29671;-59
2022/10/18 11:49:26;;;;;;;;;;;;;;;29.66;15.81;102232.73;1716856;82;25827;-59
2022/10/18 11:52:07;;;;;;;;;;;;;;;29.33;16.07;102224.73;1671081;85;25735;-59
2022/10/18 11:54:37;;;;;;;;;;;;;;;29.13;16.66;102220.22;1677214;83;27062;-59
2022/10/18 11:57:07;;;;;;;;;;;;;;;29.04;16.94;102225.17;1687799;83;25734;-60
2022/10/18 11:59:46;;;;;;;;;;;;;;;28.98;16.90;102212.23;1700184;83;27739;-60
2022/10/18 12:02:25;;;;;;;;;;;;;;;28.88;17.32;102209.11;1691881;84;25854;-59
2022/10/18 12:04:55;;;;;;;;;;;;;;;28.84;16.49;102212.00;1664618;83;25804;-58
2022/10/18 12:07:23;;;;;;;;;;;;;;;28.59;16.13;102198.95;1693213;84;26532;-59
2022/10/18 12:09:52;;;;;;;;;;;;;;;28.48;16.58;102196.88;1692662;84;25718;-59
2022/10/18 12:12:27;;;;;;;;;;;;;;;28.36;17.02;102181.00;1691940;83;27521;-61
2022/10/18 12:15:00;;;;;;;;;;;;;;;28.40;17.08;102181.41;1697414;83;25498;-60
2022/10/18 12:17:43;;;;;;;;;;;;;;;28.57;17.23;102178.41;1692548;83;26601;-59
2022/10/18 12:20:22;;;;;;;;;;;;;;;28.63;17.18;102178.06;1720840;82;25778;-58
2022/10/18 12:23:09;;;;;;;;;;;;;;;28.64;17.35;102165.05;1691034;83;25891;-60
2022/10/18 12:25:38;;;;;;;;;;;;;;;28.80;17.46;102169.23;1704700;83;27454;-60
2022/10/18 12:28:17;;;;;;;;;;;;;;;29.09;17.52;102164.94;1718303;82;25988;-59
2022/10/18 12:30:47;;;;;;;;;;;;;;;29.52;17.27;102157.72;1671431;85;25819;-59
2022/10/18 12:33:22;;;;;;;;;;;;;;;30.08;16.46;102151.62;1680590;83;25776;-58
2022/10/18 12:36:17;;;;;;;;;;;;;;;30.49;15.38;102155.19;1718186;83;25700;-59
2022/10/18 12:38:50;;;;;;;;;;;;;;;30.75;14.77;102143.69;1714376;83;27520;-60
2022/10/18 12:41:20;;;;;;;;;;;;;;;30.81;14.95;102141.89;1704678;83;25842;-61
2022/10/18 12:44:07;;;;;;;;;;;;;;;31.14;15.09;102141.03;1695406;83;25783;-60
2022/10/18 12:46:46;;;;;;;;;;;;;;;31.43;14.26;102135.02;1686965;84;25860;-58
2022/10/18 12:49:13;;;;;;;;;;;;;;;31.82;14.25;102133.11;1694671;84;25767;-59
2022/10/18 12:51:46;;;;;;;;;;;;;;;32.11;14.34;102124.74;1689663;83;27704;-60
2022/10/18 12:54:15;;;;;;;;;;;;;;;32.52;14.99;102124.67;1663990;84;25819;-60
2022/10/18 12:56:43;;;;;;;;;;;;;;;33.31;14.27;102120.08;1698876;83;25789;-59
2022/10/18 12:59:22;;;;;;;;;;;;;;;33.68;13.68;102113.90;1690981;83;25834;-60
2022/10/18 13:01:54;;;;;;;;;;;;;;;34.01;13.88;102114.31;1692630;83;25426;-59
2022/10/18 13:04:31;;;;;;;;;;;;;;;34.41;14.13;102112.75;1692961;84;27450;-60